Facebook Twitter

Wetterstation Reutte

aktuelles Wetter
 
  Temperatur Wetter Luftdruck Wind
Sa, 05:00 Uhr 0.4 °C - 1025 hPa 0 km/h km/h
Sa, 04:00 Uhr 0.4 °C - 1024.7 hPa 0 km/h km/h
Sa, 03:00 Uhr 0.1 °C - 1024.8 hPa 0 km/h km/h
Sa, 02:00 Uhr 0.4 °C - 1025 hPa 0 km/h km/h
Sa, 01:00 Uhr 0.6 °C - 1025.7 hPa 0 km/h km/h
Sa, 00:00 Uhr 0.4 °C - 1026.3 hPa 0 km/h km/h
Fr, 23:00 Uhr 0.4 °C - 1026.3 hPa 0 km/h km/h
Fr, 22:00 Uhr 0.4 °C - 1026.3 hPa 0 km/h km/h
Fr, 21:00 Uhr 0.4 °C - 1026.5 hPa 0 km/h km/h
Fr, 20:00 Uhr 0.7 °C - 1026.5 hPa 0 km/h km/h
Fr, 19:00 Uhr 0.1 °C - 1026.9 hPa 0 km/h km/h
Fr, 18:00 Uhr 0.8 °C - 1026.6 hPa 0 km/h km/h
Fr, 17:00 Uhr 1.4 °C - 1026.3 hPa 0 km/h km/h
Fr, 16:00 Uhr 1.7 °C - 1026.4 hPa 0 km/h km/h
Fr, 15:00 Uhr 2.3 °C - 1026.2 hPa 0 km/h km/h
Fr, 14:00 Uhr 2.9 °C - 1026 hPa 0 km/h km/h
Fr, 13:00 Uhr 2.2 °C - 1026.5 hPa 0 km/h km/h
Fr, 12:00 Uhr 1.4 °C - 1027.1 hPa 0 km/h km/h
Fr, 11:00 Uhr 1.0 °C - 1027.6 hPa 0 km/h km/h
Fr, 10:00 Uhr 0.1 °C - 1028 hPa 0 km/h km/h

Alle Zeitangaben in Ortszeit (MEZ)